createdAt,value
2018-12-12T00:01:08.334Z,9.10
2018-12-12T00:03:36.874Z,8.83
2018-12-12T00:06:05.800Z,8.17
2018-12-12T00:08:35.335Z,8.93
2018-12-12T00:11:04.888Z,9.80
2018-12-12T00:13:33.822Z,8.97
2018-12-12T00:16:02.306Z,8.30
2018-12-12T00:18:30.793Z,8.50
2018-12-12T00:20:59.331Z,9.20
2018-12-12T00:23:28.065Z,9.60
2018-12-12T00:25:56.577Z,8.10
2018-12-12T00:28:25.980Z,8.67
2018-12-12T00:30:54.525Z,7.80
2018-12-12T00:33:23.082Z,7.40
2018-12-12T00:35:51.595Z,7.87
2018-12-12T00:38:20.619Z,8.83
2018-12-12T00:40:49.221Z,8.83
2018-12-12T00:43:18.368Z,8.73
2018-12-12T00:45:48.225Z,8.20
2018-12-12T00:48:16.778Z,8.30
2018-12-12T00:50:45.391Z,8.77
2018-12-12T00:53:13.868Z,10.23
2018-12-12T00:55:43.442Z,8.83
2018-12-12T00:58:12.603Z,8.90
2018-12-12T01:00:41.569Z,9.53
2018-12-12T01:03:24.363Z,9.37
2018-12-12T01:05:53.134Z,9.07
2018-12-12T01:08:21.652Z,9.00
2018-12-12T01:10:55.191Z,8.40
2018-12-12T01:13:25.530Z,8.60
2018-12-12T01:15:53.967Z,8.60
2018-12-12T01:18:23.281Z,9.90
2018-12-12T01:20:51.800Z,8.83
2018-12-12T01:23:21.138Z,8.33
2018-12-12T01:25:49.616Z,8.77
2018-12-12T01:28:18.168Z,8.33
2018-12-12T01:30:48.188Z,8.13
2018-12-12T01:35:50.147Z,7.73
2018-12-12T01:38:18.732Z,7.87
2018-12-12T01:40:47.677Z,8.23
2018-12-12T01:43:16.761Z,8.73
2018-12-12T01:45:45.852Z,8.13
2018-12-12T01:48:14.352Z,7.97
2018-12-12T01:50:43.324Z,7.27
2018-12-12T01:53:11.902Z,9.60
2018-12-12T01:55:40.428Z,8.67
2018-12-12T01:58:09.982Z,8.20
2018-12-12T02:00:38.997Z,8.30
2018-12-12T02:03:07.565Z,7.87
2018-12-12T02:05:36.354Z,8.67
2018-12-12T02:08:05.187Z,9.50
2018-12-12T02:10:33.951Z,7.73
2018-12-12T02:13:13.929Z,8.30
2018-12-12T02:15:42.477Z,8.00
2018-12-12T02:18:11.543Z,7.77
2018-12-12T02:20:40.318Z,7.73
2018-12-12T02:23:09.336Z,8.27
2018-12-12T02:25:37.788Z,8.37
2018-12-12T02:28:06.368Z,8.13
2018-12-12T02:30:34.923Z,8.67
2018-12-12T02:33:03.897Z,9.03
2018-12-12T02:35:32.393Z,8.37
2018-12-12T02:38:01.369Z,8.53
2018-12-12T02:40:31.774Z,8.47
2018-12-12T02:43:00.263Z,9.10
2018-12-12T02:45:28.906Z,8.57
2018-12-12T02:47:57.695Z,8.27
2018-12-12T02:50:26.182Z,7.60
2018-12-12T02:52:54.695Z,7.87
2018-12-12T02:55:23.200Z,8.07
2018-12-12T02:57:54.229Z,7.93
2018-12-12T03:00:22.734Z,8.23
2018-12-12T03:02:51.257Z,8.83
2018-12-12T03:05:19.763Z,10.43
2018-12-12T03:07:48.255Z,8.57
2018-12-12T03:10:16.682Z,8.90
2018-12-12T03:12:45.125Z,8.63
2018-12-12T03:15:13.557Z,9.83
2018-12-12T03:17:42.023Z,8.53
2018-12-12T03:20:10.554Z,8.50
2018-12-12T03:22:39.033Z,9.37
2018-12-12T03:25:07.509Z,8.03
2018-12-12T03:27:35.951Z,8.27
2018-12-12T03:30:04.477Z,8.53
2018-12-12T03:32:32.957Z,8.73
2018-12-12T03:35:01.407Z,9.37
2018-12-12T03:37:29.854Z,8.73
2018-12-12T03:39:58.806Z,9.87
2018-12-12T03:42:28.321Z,10.23
2018-12-12T03:44:56.761Z,10.47
2018-12-12T03:47:25.280Z,9.37
2018-12-12T03:49:53.698Z,10.57
2018-12-12T03:52:22.162Z,10.63
2018-12-12T03:54:50.599Z,10.33
2018-12-12T03:57:19.070Z,11.13
2018-12-12T03:59:47.521Z,11.83
2018-12-12T04:02:16.015Z,11.10
2018-12-12T04:04:44.488Z,11.67
2018-12-12T04:07:12.934Z,10.47
2018-12-12T04:09:41.339Z,11.87
2018-12-12T04:12:09.891Z,11.63
2018-12-12T04:14:38.429Z,12.53
2018-12-12T04:17:06.943Z,11.27
2018-12-12T04:19:35.572Z,12.33
2018-12-12T04:22:04.321Z,11.97
2018-12-12T04:24:33.286Z,12.20
2018-12-12T04:27:01.816Z,12.23
2018-12-12T04:29:30.347Z,12.60
2018-12-12T04:32:05.048Z,12.80
2018-12-12T04:34:33.502Z,12.57
2018-12-12T04:37:02.020Z,13.63
2018-12-12T04:39:30.504Z,13.30
2018-12-12T04:41:58.922Z,14.17
2018-12-12T04:44:27.358Z,11.87
2018-12-12T04:46:55.996Z,12.20
2018-12-12T04:49:24.482Z,11.97
2018-12-12T04:51:52.921Z,12.13
2018-12-12T04:54:21.357Z,11.80
2018-12-12T04:56:49.872Z,12.27
2018-12-12T04:59:18.684Z,13.07
2018-12-12T05:01:47.207Z,12.23
2018-12-12T05:04:15.675Z,12.77
2018-12-12T05:06:44.141Z,13.47
2018-12-12T05:09:12.645Z,12.23
2018-12-12T05:11:41.195Z,13.10
2018-12-12T05:14:09.692Z,12.23
2018-12-12T05:16:38.200Z,13.13
2018-12-12T05:19:06.644Z,12.60
2018-12-12T05:21:35.200Z,14.53
2018-12-12T05:24:03.712Z,13.07
2018-12-12T05:26:32.909Z,12.50
2018-12-12T05:29:01.411Z,13.87
2018-12-12T05:31:29.966Z,13.37
2018-12-12T05:33:58.424Z,13.70
2018-12-12T05:36:26.899Z,13.37
2018-12-12T05:38:55.339Z,13.40
2018-12-12T05:41:23.883Z,14.47
2018-12-12T05:43:57.480Z,14.17
2018-12-12T05:46:22.866Z,14.50
2018-12-12T05:48:51.330Z,14.73
2018-12-12T05:51:19.817Z,14.73
2018-12-12T05:53:48.295Z,14.83
2018-12-12T05:56:29.112Z,15.03
2018-12-12T05:58:57.526Z,14.17
2018-12-12T06:01:26.001Z,14.27
2018-12-12T06:03:54.566Z,14.23
2018-12-12T06:06:23.097Z,15.93
2018-12-12T06:08:51.596Z,16.37
2018-12-12T06:11:20.042Z,15.10
2018-12-12T06:13:48.526Z,16.53
2018-12-12T06:16:16.980Z,16.53
2018-12-12T06:18:45.456Z,15.70
2018-12-12T06:21:13.883Z,17.30
2018-12-12T06:23:42.350Z,16.30
2018-12-12T06:26:10.779Z,16.67
2018-12-12T06:28:39.318Z,15.80
2018-12-12T06:31:07.789Z,15.53
2018-12-12T06:33:36.307Z,16.27
2018-12-12T06:36:04.744Z,17.03
2018-12-12T06:38:33.143Z,16.83
2018-12-12T06:41:01.521Z,15.27
2018-12-12T06:43:30.005Z,15.93
2018-12-12T06:45:58.482Z,16.17
2018-12-12T06:48:26.996Z,15.47
2018-12-12T06:50:55.445Z,15.30
2018-12-12T06:53:23.961Z,15.33
2018-12-12T06:55:52.414Z,15.73
2018-12-12T06:58:20.875Z,16.47
2018-12-12T07:00:49.302Z,16.10
2018-12-12T07:03:17.724Z,16.00
2018-12-12T07:05:46.190Z,15.20
2018-12-12T07:08:14.616Z,17.40
2018-12-12T07:10:43.051Z,16.37
2018-12-12T07:13:11.527Z,17.50
2018-12-12T07:15:39.955Z,15.83
2018-12-12T07:18:08.444Z,16.50
2018-12-12T07:20:36.862Z,16.93
2018-12-12T07:23:05.269Z,17.00
2018-12-12T07:25:33.787Z,16.90
2018-12-12T07:28:02.290Z,17.87
2018-12-12T07:30:30.819Z,16.00
2018-12-12T07:32:59.246Z,16.53
2018-12-12T07:35:27.699Z,17.03
2018-12-12T07:37:56.277Z,16.60
2018-12-12T07:40:24.776Z,17.63
2018-12-12T07:42:53.169Z,18.30
2018-12-12T07:45:21.651Z,17.53
2018-12-12T07:47:50.162Z,17.73
2018-12-12T07:50:18.669Z,17.50
2018-12-12T07:52:47.219Z,19.33
2018-12-12T07:55:15.802Z,19.10
2018-12-12T07:57:44.223Z,19.20
2018-12-12T08:00:13.148Z,18.70
2018-12-12T08:02:41.635Z,19.20
2018-12-12T08:05:10.104Z,18.07
2018-12-12T08:07:38.556Z,18.33
2018-12-12T08:10:07.086Z,17.90
2018-12-12T08:12:35.768Z,19.00
2018-12-12T08:15:04.234Z,18.80
2018-12-12T08:17:32.764Z,17.20
2018-12-12T08:20:01.396Z,19.83
2018-12-12T08:22:29.892Z,18.53
2018-12-12T08:24:58.449Z,17.83
2018-12-12T08:27:26.977Z,19.03
2018-12-12T08:29:55.476Z,18.87
2018-12-12T08:32:24.258Z,17.77
2018-12-12T08:34:52.795Z,17.40
2018-12-12T08:37:21.291Z,17.80
2018-12-12T08:39:49.823Z,17.70
2018-12-12T08:42:18.287Z,16.93
2018-12-12T08:44:46.754Z,18.57
2018-12-12T08:47:15.220Z,17.33
2018-12-12T08:49:43.695Z,16.43
2018-12-12T08:52:12.162Z,16.63
2018-12-12T08:54:40.814Z,16.77
2018-12-12T08:57:09.537Z,16.27
2018-12-12T08:59:38.074Z,16.10
2018-12-12T09:02:06.666Z,16.77
2018-12-12T09:04:35.177Z,14.70
2018-12-12T09:07:03.721Z,16.47
2018-12-12T09:09:32.221Z,14.77
2018-12-12T09:12:00.680Z,15.97
2018-12-12T09:14:29.201Z,15.37
2018-12-12T09:16:57.751Z,15.43
2018-12-12T09:19:26.215Z,14.87
2018-12-12T09:21:54.679Z,15.60
2018-12-12T09:24:23.227Z,14.57
2018-12-12T09:26:52.364Z,14.10
2018-12-12T09:29:20.860Z,14.30
2018-12-12T09:31:49.331Z,15.43
2018-12-12T09:34:17.840Z,14.80
2018-12-12T09:36:46.314Z,14.47
2018-12-12T09:39:14.860Z,15.20
2018-12-12T09:41:43.392Z,15.43
2018-12-12T09:44:11.906Z,13.13
2018-12-12T09:46:40.378Z,13.93
2018-12-12T09:49:09.544Z,13.47
2018-12-12T09:51:38.025Z,13.57
2018-12-12T09:54:06.549Z,12.50
2018-12-12T09:56:35.012Z,13.07
2018-12-12T09:59:03.508Z,13.93
2018-12-12T10:01:32.027Z,12.57
2018-12-12T10:04:00.500Z,11.67
2018-12-12T10:06:28.975Z,10.40
2018-12-12T10:08:57.637Z,11.50
2018-12-12T10:11:26.274Z,11.33
2018-12-12T10:13:54.711Z,11.33
2018-12-12T10:16:23.308Z,11.00
2018-12-12T10:18:51.715Z,10.73
2018-12-12T10:21:20.230Z,11.07
2018-12-12T10:23:49.238Z,10.30
2018-12-12T10:57:59.455Z,8.07
2018-12-12T11:00:27.931Z,7.30
2018-12-12T11:03:01.516Z,9.73
2018-12-12T11:05:32.409Z,8.40
2018-12-12T11:08:00.855Z,8.00
2018-12-12T11:10:29.499Z,7.70
2018-12-12T11:13:00.753Z,7.90
2018-12-12T11:15:29.419Z,7.80
2018-12-12T11:17:57.985Z,8.03
2018-12-12T11:20:26.583Z,8.47
2018-12-12T11:22:55.112Z,8.60
2018-12-12T11:25:23.631Z,8.40
2018-12-12T11:27:52.161Z,9.03
2018-12-12T11:30:20.716Z,9.30
2018-12-12T11:32:49.264Z,7.87
2018-12-12T11:35:17.859Z,7.63
2018-12-12T11:37:46.445Z,9.13
2018-12-12T11:40:14.975Z,7.60
2018-12-12T11:42:43.548Z,7.80
2018-12-12T11:45:12.191Z,8.57
2018-12-12T11:47:40.904Z,8.60
2018-12-12T11:50:09.378Z,8.90
2018-12-12T11:52:38.008Z,8.40
2018-12-12T11:55:18.776Z,9.77
2018-12-12T11:57:47.523Z,7.60
2018-12-12T12:00:16.047Z,8.13
2018-12-12T12:02:44.565Z,8.00
2018-12-12T12:05:13.061Z,7.60
2018-12-12T12:07:41.625Z,8.30
2018-12-12T12:10:11.092Z,8.97
2018-12-12T12:12:39.580Z,7.97
2018-12-12T12:15:08.588Z,8.23
2018-12-12T12:17:37.095Z,7.93
2018-12-12T12:20:05.783Z,8.93
2018-12-12T12:22:34.304Z,7.80
2018-12-12T12:25:02.747Z,7.00
2018-12-12T12:27:31.256Z,6.83
2018-12-12T12:30:00.816Z,7.23
2018-12-12T12:32:29.321Z,6.33
2018-12-12T12:34:57.873Z,6.43
2018-12-12T12:37:26.403Z,7.13
2018-12-12T12:39:54.870Z,7.00
2018-12-12T12:42:23.379Z,6.70
2018-12-12T12:44:51.869Z,7.43
2018-12-12T12:47:20.403Z,6.90
2018-12-12T12:49:48.979Z,6.70
2018-12-12T12:52:17.504Z,6.63
2018-12-12T12:54:46.156Z,7.77
2018-12-12T12:57:14.698Z,6.70
2018-12-12T12:59:43.329Z,6.47
2018-12-12T13:02:11.995Z,7.00
2018-12-12T13:04:40.516Z,6.90
2018-12-12T13:07:09.107Z,6.80
2018-12-12T13:09:38.877Z,6.63
2018-12-12T13:12:07.669Z,7.27
2018-12-12T13:14:36.534Z,6.97
2018-12-12T13:17:05.136Z,6.00
2018-12-12T13:19:33.599Z,6.73
2018-12-12T13:22:02.052Z,7.13
2018-12-12T13:24:30.515Z,6.50
2018-12-12T13:26:58.960Z,6.87
2018-12-12T13:29:27.435Z,7.23
2018-12-12T13:31:56.210Z,7.90
2018-12-12T13:34:24.971Z,7.43
2018-12-12T13:36:53.428Z,7.03
2018-12-12T13:39:21.978Z,7.33
2018-12-12T13:41:50.449Z,8.30
2018-12-12T13:44:18.952Z,8.47
2018-12-12T13:46:47.420Z,8.57
2018-12-12T13:49:16.435Z,7.90
2018-12-12T13:51:44.901Z,8.90
2018-12-12T13:54:13.404Z,9.20
2018-12-12T13:56:41.861Z,8.73
2018-12-12T13:59:10.350Z,9.00
2018-12-12T14:01:38.811Z,8.37
2018-12-12T14:04:07.284Z,8.93
2018-12-12T14:06:35.769Z,8.60
2018-12-12T14:09:05.600Z,9.13
2018-12-12T14:11:34.154Z,7.77
2018-12-12T14:14:02.668Z,9.30
2018-12-12T14:16:31.227Z,8.23
2018-12-12T14:18:59.804Z,8.60
2018-12-12T14:21:28.297Z,7.10
2018-12-12T14:23:56.900Z,7.17
2018-12-12T14:26:25.405Z,8.20
2018-12-12T14:28:53.946Z,6.47
2018-12-12T14:31:23.763Z,7.67
2018-12-12T14:33:52.428Z,7.20
2018-12-12T14:36:20.933Z,7.17
2018-12-12T14:38:49.678Z,6.73
2018-12-12T14:41:18.634Z,7.17
2018-12-12T14:43:47.187Z,7.67
2018-12-12T14:46:15.760Z,8.03
2018-12-12T14:48:44.296Z,8.23
2018-12-12T14:51:12.774Z,8.20
2018-12-12T14:53:41.357Z,9.40
2018-12-12T14:56:09.981Z,8.27
2018-12-12T14:58:38.603Z,9.00
2018-12-12T15:01:07.126Z,9.17
2018-12-12T15:03:35.633Z,8.13
2018-12-12T15:06:04.090Z,8.90
2018-12-12T15:08:32.584Z,9.23
2018-12-12T15:11:01.076Z,8.93
2018-12-12T15:13:29.612Z,9.63
2018-12-12T15:15:58.110Z,9.57
2018-12-12T15:18:26.662Z,8.73
2018-12-12T15:20:55.174Z,9.37
2018-12-12T15:23:23.763Z,8.73
2018-12-12T15:25:52.259Z,8.87
2018-12-12T15:28:20.741Z,8.43
2018-12-12T15:30:49.236Z,9.10
2018-12-12T15:33:17.833Z,8.87
2018-12-12T15:35:46.324Z,10.00
2018-12-12T15:38:14.871Z,9.67
2018-12-12T15:40:43.692Z,9.90
2018-12-12T15:43:13.169Z,8.90
2018-12-12T15:45:41.637Z,10.30
2018-12-12T15:48:10.137Z,9.80
2018-12-12T15:50:38.677Z,10.03
2018-12-12T15:53:07.186Z,10.30
2018-12-12T15:55:35.718Z,10.83
2018-12-12T15:58:04.268Z,10.53
2018-12-12T16:00:33.051Z,11.07
2018-12-12T16:03:01.875Z,11.07
2018-12-12T16:05:31.844Z,10.83
2018-12-12T16:08:00.448Z,11.00
2018-12-12T16:10:29.087Z,10.73
2018-12-12T16:12:57.696Z,11.57
2018-12-12T16:15:26.222Z,10.87
2018-12-12T16:17:54.792Z,11.37
2018-12-12T16:20:23.418Z,11.03
2018-12-12T16:22:52.010Z,11.60
2018-12-12T16:25:20.604Z,11.93
2018-12-12T16:27:50.011Z,11.57
2018-12-12T16:30:18.997Z,13.10
2018-12-12T16:32:47.757Z,13.30
2018-12-12T16:35:16.405Z,12.63
2018-12-12T16:37:44.991Z,11.67
2018-12-12T16:40:13.561Z,13.70
2018-12-12T16:42:42.098Z,13.93
2018-12-12T16:45:10.633Z,13.63
2018-12-12T16:47:39.161Z,12.47
2018-12-12T16:50:08.115Z,12.43
2018-12-12T16:52:36.722Z,12.13
2018-12-12T16:55:05.234Z,12.63
2018-12-12T16:57:33.722Z,13.43
2018-12-12T17:00:02.306Z,14.53
2018-12-12T17:02:30.788Z,14.70
2018-12-12T17:05:02.305Z,15.03
2018-12-12T17:07:30.078Z,15.03
2018-12-12T17:09:58.688Z,13.97
2018-12-12T17:12:27.219Z,15.70
2018-12-12T17:14:55.824Z,14.23
2018-12-12T17:17:24.378Z,14.37
2018-12-12T17:19:53.064Z,15.07
2018-12-12T17:22:21.613Z,15.40
2018-12-12T17:24:50.272Z,14.77
2018-12-12T17:27:18.873Z,13.53
2018-12-12T17:32:29.401Z,13.43
2018-12-12T17:34:58.024Z,12.63
2018-12-12T17:37:26.541Z,12.73
2018-12-12T17:39:55.113Z,11.50
2018-12-12T17:42:23.661Z,12.20
2018-12-12T17:44:52.312Z,13.00
2018-12-12T17:47:20.874Z,12.90
2018-12-12T17:49:49.414Z,11.77
2018-12-12T17:52:17.937Z,11.50
2018-12-12T17:54:46.528Z,12.23
2018-12-12T17:57:37.156Z,11.90
2018-12-12T18:00:05.810Z,11.23
2018-12-12T18:02:34.360Z,11.30
2018-12-12T18:05:02.867Z,10.80
2018-12-12T18:07:31.350Z,11.60
2018-12-12T18:09:59.824Z,10.67
2018-12-12T18:12:28.658Z,11.10
2018-12-12T18:14:57.249Z,10.10
2018-12-12T18:17:25.790Z,10.73
2018-12-12T18:19:54.257Z,10.87
2018-12-12T18:22:22.689Z,11.53
2018-12-12T18:24:51.188Z,10.33
2018-12-12T18:27:19.612Z,10.40
2018-12-12T18:29:48.128Z,9.80
2018-12-12T18:32:16.608Z,9.23
2018-12-12T18:34:45.026Z,9.93
2018-12-12T18:37:13.713Z,9.67
2018-12-12T18:39:42.148Z,10.17
2018-12-12T18:42:10.610Z,9.93
2018-12-12T18:44:39.062Z,10.40
2018-12-12T18:47:07.616Z,8.53
2018-12-12T18:49:42.118Z,9.47
2018-12-12T18:52:16.752Z,9.67
2018-12-12T18:54:45.297Z,9.27
2018-12-12T18:57:13.800Z,9.47
2018-12-12T18:59:42.375Z,9.47
2018-12-12T19:02:10.844Z,9.73
2018-12-12T19:04:39.425Z,9.63
2018-12-12T19:07:08.009Z,10.30
2018-12-12T19:09:36.568Z,9.47
2018-12-12T19:12:05.174Z,8.97
2018-12-12T19:14:33.764Z,8.63
2018-12-12T19:17:02.415Z,9.90
2018-12-12T19:19:30.872Z,9.97
2018-12-12T19:21:59.413Z,8.73
2018-12-12T19:24:27.938Z,10.40
2018-12-12T19:26:56.491Z,9.67
2018-12-12T19:29:25.121Z,9.23
2018-12-12T19:31:53.673Z,7.87
2018-12-12T19:34:22.136Z,9.23
2018-12-12T19:36:50.585Z,10.20
2018-12-12T19:39:19.044Z,10.57
2018-12-12T19:41:47.475Z,9.23
2018-12-12T19:44:15.942Z,10.30
2018-12-12T19:46:44.395Z,10.40
2018-12-12T19:49:12.859Z,10.53
2018-12-12T19:51:41.321Z,9.70
2018-12-12T19:54:09.804Z,9.40
2018-12-12T19:56:38.277Z,9.17
2018-12-12T19:59:06.705Z,9.60
2018-12-12T20:01:35.203Z,10.03
2018-12-12T20:04:03.635Z,8.47
2018-12-12T20:06:32.084Z,9.00
2018-12-12T20:09:00.513Z,8.10
2018-12-12T20:11:28.926Z,8.97
2018-12-12T20:13:57.409Z,8.23
2018-12-12T20:16:25.859Z,8.83
2018-12-12T20:18:54.276Z,7.90
2018-12-12T20:21:22.722Z,8.27
2018-12-12T20:23:51.128Z,9.40
2018-12-12T20:26:19.508Z,8.80
2018-12-12T20:28:47.918Z,9.73
2018-12-12T20:31:16.348Z,10.50
2018-12-12T20:33:44.756Z,11.17
2018-12-12T20:36:13.165Z,10.47
2018-12-12T20:38:41.624Z,10.47
2018-12-12T20:41:10.027Z,10.13
2018-12-12T20:43:38.433Z,11.43
2018-12-12T20:46:06.864Z,11.20
2018-12-12T20:48:35.255Z,10.50
2018-12-12T20:51:03.694Z,11.17
2018-12-12T20:53:32.093Z,11.00
2018-12-12T20:56:00.542Z,11.70
2018-12-12T20:58:28.985Z,11.13
2018-12-12T21:00:57.380Z,9.73
2018-12-12T21:03:25.793Z,10.20
2018-12-12T21:05:54.688Z,10.73
2018-12-12T21:08:23.471Z,10.37
2018-12-12T21:10:51.927Z,10.47
2018-12-12T21:13:20.342Z,10.80
2018-12-12T21:15:48.939Z,10.93
2018-12-12T21:18:18.523Z,10.83
2018-12-12T21:20:47.124Z,10.90
2018-12-12T21:23:15.556Z,10.73
2018-12-12T21:25:44.374Z,9.77
2018-12-12T21:28:12.804Z,10.33
2018-12-12T21:30:41.243Z,11.40
2018-12-12T21:33:09.667Z,11.57
2018-12-12T21:35:38.075Z,10.90
2018-12-12T21:38:06.478Z,11.33
2018-12-12T21:40:34.853Z,11.27
2018-12-12T21:43:03.297Z,10.90
2018-12-12T21:45:31.709Z,10.73
2018-12-12T21:48:00.143Z,10.20
2018-12-12T21:50:28.515Z,12.17
2018-12-12T21:52:56.912Z,11.53
2018-12-12T21:55:25.407Z,11.20
2018-12-12T21:57:53.813Z,11.13
2018-12-12T22:00:22.824Z,11.27
2018-12-12T22:02:51.238Z,11.60
2018-12-12T22:05:19.702Z,11.00
2018-12-12T22:07:48.430Z,11.43
2018-12-12T22:10:16.894Z,11.50
2018-12-12T22:12:45.380Z,11.33
2018-12-12T22:15:13.841Z,11.97
2018-12-12T22:17:42.317Z,10.77
2018-12-12T22:20:10.757Z,11.77
2018-12-12T22:22:39.263Z,10.43
2018-12-12T22:25:07.740Z,11.03
2018-12-12T22:27:36.282Z,10.27
2018-12-12T22:30:05.259Z,9.77
2018-12-12T22:32:33.721Z,9.70
2018-12-12T22:35:02.195Z,10.37
2018-12-12T22:37:30.625Z,9.97
2018-12-12T22:39:59.067Z,9.60
2018-12-12T22:42:27.565Z,10.30
2018-12-12T22:44:56.108Z,11.27
2018-12-12T22:47:24.605Z,10.47
2018-12-12T22:49:53.081Z,10.70
2018-12-12T22:52:21.571Z,10.67
2018-12-12T22:54:50.020Z,10.20
2018-12-12T22:57:18.561Z,10.60
2018-12-12T22:59:47.032Z,10.30
2018-12-12T23:02:15.517Z,11.57
2018-12-12T23:04:43.997Z,10.90
2018-12-12T23:07:12.488Z,12.13
2018-12-12T23:09:40.964Z,11.27
2018-12-12T23:12:09.411Z,11.57
2018-12-12T23:14:37.882Z,10.90
2018-12-12T23:17:06.273Z,11.03
2018-12-12T23:19:34.696Z,10.80
2018-12-12T23:22:03.074Z,11.83
2018-12-12T23:24:31.489Z,11.33
2018-12-12T23:26:59.913Z,12.40
2018-12-12T23:29:28.352Z,11.47
2018-12-12T23:31:56.752Z,11.53
2018-12-12T23:34:25.242Z,12.10
2018-12-12T23:36:53.674Z,11.13
2018-12-12T23:39:22.101Z,11.50
2018-12-12T23:41:50.494Z,12.00
2018-12-12T23:44:18.907Z,11.50
2018-12-12T23:46:47.365Z,12.10
2018-12-12T23:49:15.821Z,12.37
2018-12-12T23:51:44.245Z,12.17
2018-12-12T23:54:12.697Z,11.40
2018-12-12T23:56:53.119Z,12.40
2018-12-12T23:59:21.650Z,12.33
